Time;durP1;ratioP1;P1;durP2;ratioP2;P2;SDS_P1;SDS_P2;PMS_P1;PMS_P2;Temp;Humidity;BMP_temperature;BMP_pressure;BME280_temperature;BME280_humidity;BME280_pressure;Samples;Min_cycle;Max_cycle;Signal;HPM_P1;HPM_P2
2021/06/28 00:01:13;;;;;;;58.40;8.27;;;25.90;69.50;;;;;;5020998;28;20074;-61
2021/06/28 00:03:39;;;;;;;54.67;7.53;;;25.90;69.70;;;;;;5007612;28;20556;-61
2021/06/28 00:06:05;;;;;;;67.00;8.02;;;25.90;69.80;;;;;;5028693;28;20113;-60
2021/06/28 00:08:31;;;;;;;61.53;8.25;;;25.80;69.70;;;;;;5026847;28;20030;-61
2021/06/28 00:10:56;;;;;;;46.25;6.97;;;25.80;69.90;;;;;;5025126;28;20485;-61
2021/06/28 00:13:22;;;;;;;58.15;8.43;;;25.80;70.00;;;;;;5006883;28;20048;-61
2021/06/28 00:15:47;;;;;;;49.03;7.70;;;25.70;70.00;;;;;;5006156;28;20053;-60
2021/06/28 00:18:14;;;;;;;51.88;8.20;;;25.70;70.10;;;;;;5031563;28;20022;-62
2021/06/28 00:20:40;;;;;;;54.00;8.57;;;25.70;70.20;;;;;;4998022;28;20493;-62
2021/06/28 00:23:06;;;;;;;58.80;7.05;;;25.70;70.20;;;;;;5021734;28;20033;-60
2021/06/28 00:25:31;;;;;;;49.13;7.45;;;25.70;70.30;;;;;;5012539;28;20130;-61
2021/06/28 00:27:57;;;;;;;47.10;7.78;;;25.60;70.30;;;;;;5027109;28;20029;-63
2021/06/28 00:30:23;;;;;;;37.65;6.53;;;25.60;70.40;;;;;;5012062;28;20033;-60
2021/06/28 00:32:49;;;;;;;54.28;7.63;;;25.60;70.50;;;;;;4977235;28;20037;-62
2021/06/28 00:35:14;;;;;;;37.15;7.57;;;25.50;71.20;;;;;;5002761;28;20417;-60
2021/06/28 00:37:40;;;;;;;47.00;6.97;;;25.50;70.60;;;;;;4996920;28;20046;-63
2021/06/28 00:40:09;;;;;;;41.72;5.90;;;25.50;70.70;;;;;;5011990;28;20030;-61
2021/06/28 00:42:34;;;;;;;31.98;5.93;;;25.50;70.80;;;;;;4994922;28;20045;-61
2021/06/28 00:45:00;;;;;;;42.08;6.45;;;25.50;70.90;;;;;;5008729;28;20026;-60
2021/06/28 00:47:25;;;;;;;32.15;6.32;;;25.50;70.90;;;;;;4978107;28;20046;-62
2021/06/28 00:49:51;;;;;;;32.65;5.88;;;25.40;71.00;;;;;;5009036;28;20564;-61
2021/06/28 00:52:17;;;;;;;43.15;6.47;;;25.40;71.10;;;;;;5010789;28;20409;-60
2021/06/28 00:54:42;;;;;;;22.17;5.25;;;25.40;71.20;;;;;;5009446;28;20488;-61
2021/06/28 00:57:08;;;;;;;32.58;5.38;;;25.40;71.30;;;;;;5015636;28;20540;-61
2021/06/28 00:59:34;;;;;;;22.60;5.30;;;25.30;71.30;;;;;;5030241;28;20497;-61
2021/06/28 01:02:01;;;;;;;21.95;4.70;;;25.30;71.40;;;;;;5029472;28;20061;-61
2021/06/28 01:04:28;;;;;;;19.38;5.00;;;25.20;71.50;;;;;;5007569;28;20641;-60
2021/06/28 01:06:54;;;;;;;35.45;5.50;;;25.30;71.70;;;;;;5003543;28;20042;-61
2021/06/28 01:09:19;;;;;;;27.35;5.50;;;25.20;71.70;;;;;;5031258;28;20077;-61
2021/06/28 01:11:45;;;;;;;19.42;4.80;;;25.20;71.80;;;;;;4983973;28;20084;-60
2021/06/28 01:14:10;;;;;;;21.02;4.72;;;25.20;71.90;;;;;;5022783;28;20023;-61
2021/06/28 01:16:36;;;;;;;23.42;4.03;;;25.20;71.90;;;;;;4991227;28;20053;-60
2021/06/28 01:19:02;;;;;;;32.80;5.13;;;25.10;72.00;;;;;;5007741;28;20110;-61
2021/06/28 01:21:31;;;;;;;16.17;4.32;;;25.10;72.00;;;;;;5008807;28;20414;-59
2021/06/28 01:23:56;;;;;;;20.33;4.80;;;25.10;72.10;;;;;;5009976;28;20048;-60
2021/06/28 01:26:22;;;;;;;28.98;5.05;;;25.10;72.00;;;;;;4996404;28;20136;-60
2021/06/28 01:28:47;;;;;;;14.88;3.83;;;25.10;72.10;;;;;;5006788;28;20120;-60
2021/06/28 01:31:13;;;;;;;18.58;4.57;;;25.00;72.20;;;;;;5027712;28;20076;-60
2021/06/28 01:33:39;;;;;;;14.65;4.13;;;25.00;72.40;;;;;;5028437;28;20381;-61
2021/06/28 01:36:05;;;;;;;16.23;4.43;;;25.00;72.40;;;;;;4990152;28;20042;-62
2021/06/28 01:38:31;;;;;;;17.65;5.78;;;25.00;72.60;;;;;;5024448;28;20026;-61
2021/06/28 01:40:56;;;;;;;12.68;5.05;;;25.00;72.60;;;;;;5007820;28;20084;-59
2021/06/28 01:43:24;;;;;;;23.30;7.05;;;24.90;72.60;;;;;;4992182;28;20096;-62
2021/06/28 01:45:51;;;;;;;11.98;4.75;;;24.90;72.60;;;;;;5009291;28;20030;-59
2021/06/28 01:48:17;;;;;;;16.63;5.20;;;24.90;72.70;;;;;;5026665;28;20042;-62
2021/06/28 01:50:42;;;;;;;17.58;4.75;;;24.90;72.80;;;;;;5009396;28;20026;-62
2021/06/28 01:53:08;;;;;;;18.08;5.28;;;24.90;72.90;;;;;;4984354;28;20133;-60
2021/06/28 01:55:34;;;;;;;13.52;4.93;;;24.90;72.90;;;;;;5001954;28;20034;-61
2021/06/28 01:58:00;;;;;;;12.82;5.32;;;24.80;73.00;;;;;;4979180;28;20036;-62
2021/06/28 02:00:31;;;;;;;11.60;5.43;;;24.80;73.00;;;;;;5014712;28;20038;-62
2021/06/28 02:03:08;;;;;;;12.88;5.20;;;24.70;73.10;;;;;;4986717;28;20022;-61
2021/06/28 02:05:36;;;;;;;17.60;4.82;;;24.70;73.10;;;;;;4999141;28;20041;-60
2021/06/28 02:08:03;;;;;;;12.40;4.72;;;24.80;73.20;;;;;;5013592;28;20048;-62
2021/06/28 02:10:29;;;;;;;13.10;5.10;;;24.70;73.20;;;;;;4996568;28;20061;-60
2021/06/28 02:12:54;;;;;;;15.40;5.25;;;24.60;73.30;;;;;;5012723;28;20500;-61
2021/06/28 02:15:22;;;;;;;16.85;4.28;;;24.60;73.30;;;;;;5000508;28;20021;-60
2021/06/28 02:17:47;;;;;;;13.65;4.32;;;24.60;73.40;;;;;;4988829;28;20069;-59
2021/06/28 02:20:13;;;;;;;11.05;4.65;;;24.60;73.40;;;;;;5017577;28;20147;-61
2021/06/28 02:22:39;;;;;;;10.27;4.57;;;24.60;73.50;;;;;;5009566;28;20041;-63
2021/06/28 02:25:06;;;;;;;18.35;5.03;;;24.60;73.50;;;;;;5008466;28;20502;-60
2021/06/28 02:27:32;;;;;;;11.35;4.68;;;24.60;73.50;;;;;;5009426;28;20026;-62
2021/06/28 02:29:57;;;;;;;11.95;4.80;;;24.60;73.60;;;;;;5025477;28;20041;-60
2021/06/28 02:32:23;;;;;;;9.25;4.85;;;24.50;73.60;;;;;;5009547;28;20439;-61
2021/06/28 02:34:48;;;;;;;14.85;4.80;;;24.50;73.70;;;;;;5018429;28;20101;-61
2021/06/28 02:37:14;;;;;;;13.85;4.50;;;24.50;73.80;;;;;;5010381;28;20577;-61
2021/06/28 02:39:39;;;;;;;12.52;4.78;;;24.50;73.90;;;;;;5026101;28;20049;-60
2021/06/28 02:42:05;;;;;;;14.10;4.45;;;24.40;73.90;;;;;;5026440;28;20018;-61
2021/06/28 02:44:31;;;;;;;15.30;4.88;;;24.40;74.00;;;;;;5015616;28;20105;-61
2021/06/28 02:46:56;;;;;;;7.80;4.38;;;24.40;74.10;;;;;;4999771;28;20054;-61
2021/06/28 02:49:22;;;;;;;7.13;3.67;;;24.30;74.10;;;;;;4989459;28;20040;-61
2021/06/28 02:51:47;;;;;;;8.73;3.60;;;24.30;74.10;;;;;;5008216;28;20037;-62
2021/06/28 02:54:13;;;;;;;9.10;3.75;;;24.30;74.30;;;;;;4993116;28;20032;-62
2021/06/28 02:56:38;;;;;;;8.05;3.80;;;24.30;74.30;;;;;;4991177;28;20026;-62
2021/06/28 02:59:04;;;;;;;10.10;3.60;;;24.30;74.40;;;;;;5015736;28;20077;-61
2021/06/28 03:01:30;;;;;;;6.63;4.00;;;24.20;74.40;;;;;;5026572;28;20113;-61
2021/06/28 03:03:55;;;;;;;14.40;4.35;;;24.20;74.50;;;;;;5036885;28;20029;-61
2021/06/28 03:06:21;;;;;;;9.40;3.58;;;24.20;74.50;;;;;;5024698;28;20038;-61
2021/06/28 03:08:46;;;;;;;4.53;3.78;;;24.20;74.60;;;;;;5030159;28;20031;-63
2021/06/28 03:11:16;;;;;;;10.88;3.92;;;24.20;74.60;;;;;;5027010;28;20026;-61
2021/06/28 03:13:42;;;;;;;4.15;3.25;;;24.20;74.60;;;;;;5006646;28;20030;-61
2021/06/28 03:16:08;;;;;;;6.18;3.92;;;24.10;74.50;;;;;;5023619;28;20105;-61
2021/06/28 03:18:34;;;;;;;8.00;4.00;;;24.10;74.60;;;;;;5021814;28;20029;-62
2021/06/28 03:20:59;;;;;;;7.05;3.67;;;24.10;74.70;;;;;;5023944;28;20085;-61
2021/06/28 03:23:25;;;;;;;7.13;3.75;;;24.00;74.80;;;;;;5023102;28;20053;-60
2021/06/28 03:25:51;;;;;;;5.40;3.33;;;24.00;74.80;;;;;;5006454;28;20081;-62
2021/06/28 03:28:16;;;;;;;8.27;3.60;;;24.00;74.80;;;;;;5009203;28;20017;-60
2021/06/28 03:30:43;;;;;;;8.52;3.22;;;24.00;75.00;;;;;;5018825;28;20054;-62
2021/06/28 03:33:09;;;;;;;12.73;3.90;;;23.90;75.00;;;;;;5017650;28;20101;-61
2021/06/28 03:35:34;;;;;;;9.60;3.70;;;24.00;75.10;;;;;;4973206;28;20448;-62
2021/06/28 03:38:00;;;;;;;5.72;3.50;;;23.90;75.10;;;;;;5023819;28;20488;-60
2021/06/28 03:40:26;;;;;;;6.72;3.35;;;23.90;75.20;;;;;;5024144;28;20543;-61
2021/06/28 03:42:51;;;;;;;10.05;3.25;;;23.90;75.20;;;;;;5024680;28;20036;-61
2021/06/28 03:45:17;;;;;;;6.25;3.38;;;23.90;75.30;;;;;;5009145;28;20026;-61
2021/06/28 03:47:43;;;;;;;5.03;3.20;;;23.80;75.20;;;;;;5026892;28;20058;-61
2021/06/28 03:50:09;;;;;;;6.55;3.20;;;23.80;75.30;;;;;;5010876;28;20029;-61
2021/06/28 03:52:35;;;;;;;7.45;2.92;;;23.80;75.40;;;;;;5038314;28;20042;-59
2021/06/28 03:55:01;;;;;;;8.45;3.63;;;23.80;75.50;;;;;;5024416;28;20040;-61
2021/06/28 03:57:26;;;;;;;5.72;3.28;;;23.80;75.40;;;;;;5015900;28;20462;-60
2021/06/28 03:59:52;;;;;;;4.53;2.88;;;23.70;75.40;;;;;;4995293;28;20635;-62
2021/06/28 04:02:17;;;;;;;4.30;2.55;;;23.70;75.40;;;;;;5016685;28;20030;-61
2021/06/28 04:04:48;;;;;;;6.05;2.83;;;23.70;75.50;;;;;;4997928;28;20112;-62
2021/06/28 04:07:14;;;;;;;6.10;2.80;;;23.70;75.50;;;;;;5000375;28;20057;-61
2021/06/28 04:09:40;;;;;;;5.78;2.70;;;23.70;75.50;;;;;;5009027;28;20064;-61
2021/06/28 04:12:06;;;;;;;3.45;2.75;;;23.70;75.60;;;;;;5009867;28;20066;-61
2021/06/28 04:14:31;;;;;;;5.65;3.20;;;23.70;75.70;;;;;;5008495;28;20026;-62
2021/06/28 04:16:57;;;;;;;5.65;3.05;;;23.60;75.70;;;;;;5012044;28;20029;-62
2021/06/28 04:19:22;;;;;;;6.13;2.90;;;23.60;75.70;;;;;;5020510;28;20069;-62
2021/06/28 04:21:48;;;;;;;4.45;3.10;;;23.70;75.80;;;;;;5016198;28;20543;-60
2021/06/28 04:24:13;;;;;;;12.98;3.13;;;23.60;75.90;;;;;;4997651;28;20057;-61
2021/06/28 04:26:39;;;;;;;8.27;3.20;;;23.60;75.90;;;;;;5000545;28;20457;-62
2021/06/28 04:29:05;;;;;;;6.35;3.45;;;23.60;76.00;;;;;;5037312;28;20033;-61
2021/06/28 04:31:32;;;;;;;9.60;3.50;;;23.60;76.00;;;;;;5040901;28;20030;-62
2021/06/28 04:33:57;;;;;;;5.15;3.53;;;23.60;76.00;;;;;;4989382;28;20042;-61
2021/06/28 04:36:23;;;;;;;6.05;3.45;;;23.50;76.00;;;;;;5010137;28;20097;-62
2021/06/28 04:38:48;;;;;;;5.10;2.90;;;23.60;76.00;;;;;;5010978;28;20740;-61
2021/06/28 04:41:14;;;;;;;4.05;2.85;;;23.50;76.00;;;;;;5019773;28;20108;-62
2021/06/28 04:43:39;;;;;;;6.22;4.50;;;23.50;76.10;;;;;;5028259;28;20129;-62
2021/06/28 04:46:05;;;;;;;6.85;5.80;;;23.50;76.20;;;;;;5010904;28;20052;-61
2021/06/28 04:48:30;;;;;;;6.78;5.15;;;23.50;76.40;;;;;;5026390;28;20022;-61
2021/06/28 04:50:56;;;;;;;9.45;5.85;;;23.50;76.40;;;;;;5027942;28;20061;-63
2021/06/28 04:53:21;;;;;;;7.82;4.90;;;23.50;76.40;;;;;;5019796;28;20022;-62
2021/06/28 04:55:47;;;;;;;6.90;4.60;;;23.50;76.40;;;;;;5017406;28;20415;-60
2021/06/28 04:58:13;;;;;;;8.95;4.75;;;23.40;76.30;;;;;;5019467;28;20069;-61
2021/06/28 05:00:38;;;;;;;8.02;4.72;;;23.40;76.30;;;;;;5002843;28;20069;-60
2021/06/28 05:03:04;;;;;;;12.70;5.43;;;23.40;76.30;;;;;;5009489;28;20030;-63
2021/06/28 05:05:29;;;;;;;10.13;5.22;;;23.40;76.20;;;;;;4982879;28;20110;-63
2021/06/28 05:07:56;;;;;;;8.15;5.18;;;23.40;76.10;;;;;;4990031;28;20584;-62
2021/06/28 05:10:21;;;;;;;8.30;5.18;;;23.40;76.10;;;;;;5034431;28;20468;-61
2021/06/28 05:12:47;;;;;;;11.02;4.97;;;23.40;76.10;;;;;;4991372;28;20105;-62
2021/06/28 05:15:13;;;;;;;12.55;5.32;;;23.40;76.10;;;;;;5005984;28;20741;-62
2021/06/28 05:17:39;;;;;;;9.00;5.25;;;23.40;76.10;;;;;;4999964;28;20033;-61
2021/06/28 05:20:05;;;;;;;10.52;5.28;;;23.40;76.10;;;;;;5004617;28;20421;-61
2021/06/28 05:22:30;;;;;;;11.15;5.20;;;23.40;76.00;;;;;;5011435;28;20046;-62
2021/06/28 05:24:56;;;;;;;9.07;4.80;;;23.40;76.10;;;;;;5022365;28;20018;-63
2021/06/28 05:27:22;;;;;;;10.98;4.82;;;23.40;76.10;;;;;;4998098;28;20092;-63
2021/06/28 05:29:54;;;;;;;9.48;4.28;;;23.40;76.00;;;;;;5007661;28;20033;-63
2021/06/28 05:32:20;;;;;;;8.55;4.30;;;23.40;76.00;;;;;;5020579;28;20371;-63
2021/06/28 05:34:45;;;;;;;11.82;4.30;;;23.40;76.20;;;;;;5025835;28;20125;-61
2021/06/28 05:37:11;;;;;;;7.95;4.55;;;23.40;76.30;;;;;;4994088;28;20029;-62
2021/06/28 05:39:36;;;;;;;10.23;4.13;;;23.30;76.20;;;;;;5000432;28;20056;-62
2021/06/28 05:42:02;;;;;;;8.40;4.80;;;23.40;76.50;;;;;;5002249;28;20527;-62
2021/06/28 05:44:28;;;;;;;10.13;4.28;;;23.30;76.80;;;;;;5008616;28;20034;-62
2021/06/28 05:46:53;;;;;;;8.02;4.43;;;23.30;76.80;;;;;;5024622;28;20498;-63
2021/06/28 05:49:19;;;;;;;7.28;4.32;;;23.30;77.00;;;;;;5006960;28;20082;-62
2021/06/28 05:51:44;;;;;;;10.73;4.45;;;23.30;77.20;;;;;;5008872;28;20026;-62
2021/06/28 05:54:10;;;;;;;7.85;4.40;;;23.30;76.80;;;;;;5004046;28;20470;-63
2021/06/28 05:56:35;;;;;;;7.60;4.15;;;23.30;76.70;;;;;;5012948;28;20032;-62
2021/06/28 05:59:01;;;;;;;10.60;4.60;;;23.30;76.70;;;;;;5018413;28;20045;-63
2021/06/28 06:01:26;;;;;;;5.85;3.72;;;23.30;76.70;;;;;;5014848;28;20045;-62
2021/06/28 06:03:52;;;;;;;7.95;3.42;;;23.30;76.70;;;;;;5030953;28;20055;-61
2021/06/28 06:06:17;;;;;;;6.03;3.75;;;23.30;76.70;;;;;;5017596;28;20053;-63
2021/06/28 06:08:43;;;;;;;9.07;3.72;;;23.30;76.70;;;;;;5003655;28;20026;-63
2021/06/28 06:11:08;;;;;;;4.22;3.22;;;23.30;76.70;;;;;;5026555;28;20544;-61
2021/06/28 06:13:34;;;;;;;9.48;3.30;;;23.30;76.70;;;;;;5023831;28;20086;-61
2021/06/28 06:15:59;;;;;;;6.78;3.45;;;23.30;76.80;;;;;;4989842;28;20675;-61
2021/06/28 06:18:25;;;;;;;9.52;3.25;;;23.20;76.70;;;;;;5001949;28;20590;-62
2021/06/28 06:20:51;;;;;;;10.02;3.50;;;23.30;76.80;;;;;;5008313;28;20185;-60
2021/06/28 06:23:16;;;;;;;12.07;3.30;;;23.30;76.70;;;;;;5003000;28;20037;-61
2021/06/28 06:25:42;;;;;;;12.35;3.30;;;23.30;76.70;;;;;;5006759;28;20190;-61
2021/06/28 06:28:08;;;;;;;8.77;3.15;;;23.30;76.70;;;;;;5008572;28;20673;-63
2021/06/28 06:30:34;;;;;;;10.55;3.35;;;23.30;76.70;;;;;;4970338;28;20069;-62
2021/06/28 06:32:59;;;;;;;9.45;3.22;;;23.30;76.80;;;;;;4973743;28;20650;-61
2021/06/28 06:35:25;;;;;;;8.18;3.38;;;23.30;76.80;;;;;;5012513;28;20030;-63
2021/06/28 06:37:53;;;;;;;8.95;3.20;;;23.30;76.90;;;;;;4970606;28;20049;-61
2021/06/28 06:40:19;;;;;;;7.47;3.05;;;23.30;76.80;;;;;;4983820;28;20068;-62
2021/06/28 06:42:44;;;;;;;6.80;2.70;;;23.30;76.80;;;;;;4986699;28;20030;-61
2021/06/28 06:45:11;;;;;;;11.65;3.20;;;23.30;76.80;;;;;;5021460;28;20136;-62
2021/06/28 06:47:36;;;;;;;8.55;3.40;;;23.30;76.90;;;;;;5008695;28;20513;-63
2021/06/28 06:50:02;;;;;;;15.75;3.70;;;23.30;77.20;;;;;;5006652;28;20110;-61
2021/06/28 06:52:28;;;;;;;16.73;3.35;;;23.30;77.10;;;;;;5020274;28;20042;-62
2021/06/28 06:54:53;;;;;;;12.63;3.00;;;23.30;77.20;;;;;;5020891;28;20025;-62
2021/06/28 06:57:19;;;;;;;11.73;3.20;;;23.30;78.20;;;;;;5006812;28;20089;-63
2021/06/28 06:59:44;;;;;;;16.75;3.60;;;23.30;77.40;;;;;;5022175;28;20449;-63
2021/06/28 07:02:10;;;;;;;19.17;3.00;;;23.30;77.40;;;;;;5004732;28;20482;-62
2021/06/28 07:04:36;;;;;;;12.00;3.17;;;23.30;77.40;;;;;;4988995;28;20053;-60
2021/06/28 07:07:02;;;;;;;9.98;2.60;;;23.30;78.60;;;;;;5021158;28;20045;-63
2021/06/28 07:09:28;;;;;;;8.80;2.65;;;23.30;79.10;;;;;;5007965;28;20409;-62
2021/06/28 07:11:54;;;;;;;24.50;2.90;;;23.20;79.40;;;;;;5007175;28;20046;-62
2021/06/28 07:14:19;;;;;;;11.75;3.38;;;23.20;79.90;;;;;;4988934;28;20045;-62
2021/06/28 07:16:45;;;;;;;11.85;2.45;;;23.10;80.20;;;;;;5000707;28;20041;-61
2021/06/28 07:19:10;;;;;;;8.65;2.33;;;23.20;80.40;;;;;;4999143;28;20049;-62
2021/06/28 07:21:36;;;;;;;16.52;2.50;;;23.10;80.60;;;;;;4977034;28;20034;-61
2021/06/28 07:24:01;;;;;;;14.90;2.45;;;23.10;81.00;;;;;;4989956;28;20037;-61
2021/06/28 07:26:27;;;;;;;15.60;2.72;;;23.10;81.50;;;;;;5006327;28;20038;-62
2021/06/28 07:28:53;;;;;;;23.67;3.20;;;23.00;81.50;;;;;;5027180;28;20089;-61
2021/06/28 07:31:19;;;;;;;23.85;3.63;;;23.00;81.40;;;;;;5007231;28;20440;-62
2021/06/28 07:33:45;;;;;;;56.60;6.35;;;23.10;82.10;;;;;;5006709;28;20038;-61
2021/06/28 07:36:10;;;;;;;37.20;5.18;;;23.00;81.30;;;;;;4964236;28;20025;-63
2021/06/28 07:38:36;;;;;;;19.38;3.58;;;23.10;81.20;;;;;;4976771;28;20631;-60
2021/06/28 07:41:02;;;;;;;25.30;3.90;;;23.10;81.20;;;;;;5008111;28;20025;-62
2021/06/28 07:43:28;;;;;;;26.17;3.78;;;23.10;81.30;;;;;;5027388;28;20066;-62
2021/06/28 07:45:54;;;;;;;25.88;3.72;;;23.10;81.00;;;;;;5026737;28;20403;-61
2021/06/28 07:48:19;;;;;;;27.52;4.20;;;23.10;80.90;;;;;;5007393;28;20022;-61
2021/06/28 07:50:45;;;;;;;25.67;3.92;;;23.10;80.90;;;;;;5025042;28;20025;-62
2021/06/28 07:53:10;;;;;;;49.28;7.07;;;23.10;81.30;;;;;;5029188;28;20350;-62
2021/06/28 07:55:36;;;;;;;28.70;4.32;;;23.10;81.30;;;;;;5024376;28;20596;-60
2021/06/28 07:58:02;;;;;;;41.78;5.70;;;23.10;81.20;;;;;;5014214;28;20090;-61
2021/06/28 08:00:27;;;;;;;34.25;4.03;;;23.20;81.10;;;;;;5021238;28;20577;-61
2021/06/28 08:02:53;;;;;;;28.63;4.15;;;23.20;81.00;;;;;;4988664;28;20030;-62
2021/06/28 08:05:18;;;;;;;26.13;3.42;;;23.20;81.00;;;;;;5013953;28;21774;-61
2021/06/28 08:07:44;;;;;;;25.50;4.00;;;23.30;81.10;;;;;;5005774;28;20489;-60
2021/06/28 08:10:11;;;;;;;27.05;3.70;;;23.30;80.90;;;;;;4993262;28;20041;-63
2021/06/28 08:12:36;;;;;;;20.10;4.10;;;23.30;80.80;;;;;;5002586;28;20045;-62
2021/06/28 08:15:03;;;;;;;31.45;4.32;;;23.20;80.60;;;;;;5030632;28;20478;-61
2021/06/28 08:17:29;;;;;;;28.25;3.60;;;23.20;80.60;;;;;;5025373;28;20143;-62
2021/06/28 08:19:54;;;;;;;16.17;3.55;;;23.30;80.90;;;;;;4990461;28;20502;-60
2021/06/28 08:22:20;;;;;;;28.08;3.60;;;23.30;81.10;;;;;;4976911;28;20026;-62
2021/06/28 08:24:46;;;;;;;34.13;4.50;;;23.30;80.70;;;;;;4986978;28;20044;-61
2021/06/28 08:27:11;;;;;;;36.38;5.47;;;23.40;81.30;;;;;;5008063;28;20038;-61
2021/06/28 08:29:37;;;;;;;48.22;5.25;;;23.40;81.30;;;;;;5024497;28;20030;-63
2021/06/28 08:32:03;;;;;;;38.92;4.55;;;23.40;81.40;;;;;;5021948;28;20030;-62
2021/06/28 08:34:28;;;;;;;27.10;4.20;;;23.50;81.70;;;;;;5007235;28;20048;-63
2021/06/28 08:36:54;;;;;;;20.00;4.03;;;23.40;81.50;;;;;;5009645;28;20485;-61
2021/06/28 08:39:19;;;;;;;29.35;3.95;;;23.50;81.60;;;;;;5021652;28;20447;-61
2021/06/28 08:41:47;;;;;;;46.38;5.65;;;23.50;81.50;;;;;;4985784;28;20018;-63
2021/06/28 08:44:12;;;;;;;37.63;4.97;;;23.60;81.50;;;;;;5021261;28;20018;-63
2021/06/28 08:46:38;;;;;;;28.90;4.72;;;23.60;81.30;;;;;;5006133;28;20034;-63
2021/06/28 08:49:03;;;;;;;27.10;4.43;;;23.60;81.30;;;;;;5023951;28;20517;-61
2021/06/28 08:51:30;;;;;;;27.77;4.20;;;23.70;81.20;;;;;;5008304;28;20024;-63
2021/06/28 08:53:56;;;;;;;39.20;5.82;;;23.60;81.00;;;;;;5005021;28;20118;-61
2021/06/28 08:56:21;;;;;;;56.65;6.32;;;23.70;81.20;;;;;;4985374;28;20040;-62
2021/06/28 08:58:47;;;;;;;53.88;7.15;;;23.70;81.10;;;;;;4991215;28;20026;-62
2021/06/28 09:01:13;;;;;;;50.38;6.18;;;23.70;81.00;;;;;;5006189;28;20753;-60
2021/06/28 09:03:38;;;;;;;66.63;8.35;;;23.70;81.00;;;;;;5005084;28;20422;-63
2021/06/28 09:06:06;;;;;;;60.70;7.20;;;23.80;80.80;;;;;;5021022;28;20081;-61
2021/06/28 09:08:35;;;;;;;64.57;6.72;;;23.80;80.90;;;;;;4989041;28;20022;-60
2021/06/28 09:11:01;;;;;;;35.00;6.32;;;23.90;81.50;;;;;;4993956;28;20025;-62
2021/06/28 09:13:40;;;;;;;46.00;5.78;;;23.90;80.60;;;;;;5006534;28;20534;-61
2021/06/28 09:16:14;;;;;;;48.97;6.70;;;23.90;80.70;;;;;;5022664;28;20097;-62
2021/06/28 09:19:10;;;;;;;62.35;8.25;;;23.90;80.30;;;;;;5007552;28;20093;-62
2021/06/28 09:21:42;;;;;;;58.10;8.57;;;24.00;80.20;;;;;;4992469;28;20371;-62
2021/06/28 09:24:43;;;;;;;52.75;7.32;;;24.00;79.90;;;;;;5006221;28;20022;-61
2021/06/28 09:27:12;;;;;;;58.20;6.32;;;24.10;79.70;;;;;;5005310;28;20037;-61
2021/06/28 09:29:42;;;;;;;42.95;5.93;;;24.10;79.60;;;;;;5004703;28;20026;-61
2021/06/28 09:32:08;;;;;;;51.92;6.53;;;24.10;79.50;;;;;;4986294;28;20029;-63
2021/06/28 09:34:34;;;;;;;49.00;6.25;;;24.10;79.30;;;;;;4976504;28;20173;-62
2021/06/28 09:37:00;;;;;;;43.53;5.78;;;24.20;79.20;;;;;;5004646;28;20831;-62
2021/06/28 09:39:26;;;;;;;73.78;8.77;;;24.30;78.90;;;;;;5006393;28;20120;-62
2021/06/28 09:41:58;;;;;;;64.95;7.13;;;24.30;79.00;;;;;;4989927;28;20054;-61
2021/06/28 09:44:25;;;;;;;37.55;6.25;;;24.30;78.90;;;;;;5022486;28;20124;-61
2021/06/28 09:47:13;;;;;;;69.38;8.27;;;24.40;78.80;;;;;;4974309;28;20018;-60
2021/06/28 09:49:40;;;;;;;46.78;6.35;;;24.40;78.70;;;;;;5021644;28;20041;-61
2021/06/28 09:52:06;;;;;;;42.53;6.85;;;24.40;78.60;;;;;;5024469;28;20092;-62
2021/06/28 09:54:36;;;;;;;63.67;8.82;;;24.50;78.40;;;;;;5023254;28;20421;-60
2021/06/28 09:57:05;;;;;;;48.58;6.38;;;24.50;78.30;;;;;;5017600;28;20034;-60
2021/06/28 09:59:32;;;;;;;48.15;6.25;;;24.50;77.90;;;;;;5024718;28;20563;-59
2021/06/28 10:02:15;;;;;;;51.55;6.43;;;24.60;77.80;;;;;;5004034;28;20041;-62
2021/06/28 10:07:21;;;;;;;42.42;5.55;;;24.70;77.50;;;;;;5007336;28;20116;-60
2021/06/28 10:10:09;;;;;;;33.63;5.55;;;24.70;77.30;;;;;;5005910;28;20037;-60
2021/06/28 10:12:35;;;;;;;33.42;5.30;;;24.80;77.10;;;;;;5020324;28;20034;-58
2021/06/28 10:15:01;;;;;;;38.67;5.80;;;24.80;77.00;;;;;;4972420;28;20022;-60
2021/06/28 10:17:27;;;;;;;39.83;5.53;;;24.90;76.90;;;;;;5000582;28;20023;-60
2021/06/28 10:19:52;;;;;;;88.85;10.25;;;24.90;76.80;;;;;;4989841;28;20072;-60
2021/06/28 10:22:18;;;;;;;55.60;6.65;;;25.00;76.80;;;;;;5022610;28;20034;-61
2021/06/28 10:24:43;;;;;;;34.58;5.78;;;25.00;76.70;;;;;;5006970;28;20041;-62
2021/06/28 10:27:09;;;;;;;43.05;6.93;;;25.10;76.60;;;;;;4987749;28;20025;-62
2021/06/28 10:29:35;;;;;;;40.28;7.13;;;25.10;76.40;;;;;;5005052;28;20034;-62
2021/06/28 10:32:08;;;;;;;36.90;6.75;;;25.20;76.40;;;;;;5018464;28;20473;-62
2021/06/28 10:34:33;;;;;;;35.88;5.00;;;25.20;76.30;;;;;;5004330;28;20080;-61
2021/06/28 10:37:01;;;;;;;47.63;6.88;;;25.30;76.50;;;;;;5021597;28;20052;-63
2021/06/28 10:39:30;;;;;;;44.78;5.85;;;25.30;76.40;;;;;;5021384;28;20442;-61
2021/06/28 10:41:56;;;;;;;26.23;5.07;;;25.40;76.30;;;;;;5020826;28;20088;-61
2021/06/28 10:44:23;;;;;;;29.77;5.10;;;25.40;76.40;;;;;;4985400;28;20023;-61
2021/06/28 10:46:50;;;;;;;33.08;5.45;;;25.50;76.10;;;;;;5017165;28;20441;-62
2021/06/28 10:49:17;;;;;;;30.50;4.85;;;25.60;76.00;;;;;;4986156;28;20030;-63
2021/06/28 10:51:45;;;;;;;49.17;6.22;;;25.60;76.00;;;;;;5000621;28;20397;-63
2021/06/28 10:54:15;;;;;;;25.35;5.70;;;25.60;75.80;;;;;;5002026;28;20030;-62
2021/06/28 10:56:49;;;;;;;28.05;4.75;;;25.70;75.60;;;;;;5019665;28;20528;-62
2021/06/28 10:59:14;;;;;;;46.63;6.57;;;25.70;75.30;;;;;;5015729;28;20132;-59
2021/06/28 11:01:46;;;;;;;36.25;7.18;;;25.90;75.70;;;;;;5003615;28;20418;-63
2021/06/28 11:04:28;;;;;;;53.70;7.15;;;25.90;75.20;;;;;;5003991;28;20530;-61
2021/06/28 11:06:59;;;;;;;44.30;6.30;;;26.00;75.00;;;;;;4988147;28;21086;-63
2021/06/28 11:09:41;;;;;;;53.97;7.47;;;26.10;74.70;;;;;;5007548;28;20022;-62
2021/06/28 11:12:22;;;;;;;19.50;4.65;;;26.20;74.50;;;;;;5014647;28;20030;-62
2021/06/28 11:14:58;;;;;;;47.45;6.60;;;26.30;74.20;;;;;;4998235;28;20045;-63
2021/06/28 11:17:40;;;;;;;;;;;26.30;74.10;;;;;;5000938;28;20014;-61
2021/06/28 11:20:07;;;;;;;63.38;8.40;;;26.40;73.90;;;;;;5023443;28;20421;-61
2021/06/28 11:23:00;;;;;;;31.08;4.47;;;26.40;74.00;;;;;;4973715;28;20037;-63
2021/06/28 11:25:28;;;;;;;51.42;6.38;;;26.50;74.00;;;;;;5012072;28;20026;-62
2021/06/28 11:27:59;;;;;;;34.10;5.50;;;26.50;73.80;;;;;;5001989;28;20034;-62
2021/06/28 11:30:26;;;;;;;27.05;5.00;;;26.60;73.80;;;;;;5006894;28;20572;-62
2021/06/28 11:33:07;;;;;;;52.20;7.35;;;26.60;73.80;;;;;;4989416;28;20026;-62
2021/06/28 11:35:41;;;;;;;77.20;8.32;;;26.70;73.80;;;;;;5004994;28;20025;-62
2021/06/28 11:38:13;;;;;;;62.88;7.95;;;26.80;73.90;;;;;;5026743;28;20029;-61
2021/06/28 11:40:40;;;;;;;50.78;7.40;;;26.80;73.50;;;;;;5026134;28;20030;-62
2021/06/28 11:43:06;;;;;;;66.38;8.27;;;26.80;73.40;;;;;;4991107;28;20593;-62
2021/06/28 11:45:52;;;;;;;66.55;8.23;;;26.80;73.30;;;;;;5005664;28;20041;-63
2021/06/28 11:48:37;;;;;;;51.42;7.05;;;26.90;73.40;;;;;;4986918;28;20113;-62
2021/06/28 11:51:26;;;;;;;41.72;6.20;;;27.00;73.30;;;;;;4981556;28;20069;-63
2021/06/28 11:54:03;;;;;;;30.98;5.63;;;27.10;73.30;;;;;;4977684;28;20034;-62
2021/06/28 11:56:31;;;;;;;44.72;7.20;;;27.10;73.10;;;;;;4996932;28;20715;-63
2021/06/28 11:58:58;;;;;;;29.75;4.72;;;27.10;73.20;;;;;;5020827;28;20022;-62
2021/06/28 12:01:30;;;;;;;47.67;6.43;;;27.20;73.10;;;;;;5002534;28;20108;-64
2021/06/28 12:03:56;;;;;;;22.02;4.55;;;27.20;72.60;;;;;;5021799;28;20030;-61
2021/06/28 12:06:24;;;;;;;52.85;6.50;;;27.20;71.80;;;;;;5024882;28;20025;-63
2021/06/28 12:09:08;;;;;;;30.90;4.38;;;27.30;71.70;;;;;;5024552;28;20041;-62
2021/06/28 12:11:36;;;;;;;28.58;4.55;;;27.30;71.60;;;;;;5015822;28;20033;-61
2021/06/28 12:14:01;;;;;;;32.25;5.40;;;27.40;72.00;;;;;;4989188;28;20025;-62
2021/06/28 12:16:28;;;;;;;23.55;4.30;;;27.40;72.40;;;;;;5003313;28;20571;-61
2021/06/28 12:19:20;;;;;;;35.72;6.22;;;27.40;72.50;;;;;;5005191;28;20392;-62
2021/06/28 12:21:45;;;;;;;45.13;6.43;;;27.50;72.70;;;;;;4985631;28;20049;-61
2021/06/28 12:24:16;;;;;;;41.90;5.85;;;27.50;72.80;;;;;;5005853;28;20044;-63
2021/06/28 12:27:01;;;;;;;43.28;5.90;;;27.50;72.80;;;;;;5013035;28;20426;-61
2021/06/28 12:29:32;;;;;;;36.15;5.28;;;27.60;72.70;;;;;;5006086;28;20030;-63
2021/06/28 12:32:05;;;;;;;34.95;5.47;;;27.60;72.60;;;;;;5008204;28;20026;-63
2021/06/28 12:34:31;;;;;;;27.05;5.03;;;27.60;72.50;;;;;;4987696;28;20044;-62
2021/06/28 12:36:56;;;;;;;30.38;5.55;;;27.60;72.60;;;;;;5015543;28;20030;-61
2021/06/28 12:39:23;;;;;;;23.55;4.88;;;27.70;72.70;;;;;;5001708;28;20041;-61
2021/06/28 12:41:49;;;;;;;27.85;4.60;;;27.70;72.80;;;;;;5003666;28;20432;-62
2021/06/28 12:44:14;;;;;;;31.88;4.88;;;27.80;72.90;;;;;;5021182;28;20105;-62